createdAt,value
2022-11-30T05:03:36.161Z,12.48
2022-11-30T05:07:40.534Z,12.10
2022-11-30T05:11:43.448Z,12.50
2022-11-30T05:15:46.670Z,13.00
2022-11-30T05:19:50.689Z,12.00
2022-11-30T05:23:53.343Z,12.75
2022-11-30T05:27:55.952Z,11.80
2022-11-30T05:31:58.553Z,12.33
2022-11-30T05:36:05.924Z,11.80
2022-11-30T05:40:13.853Z,12.52
2022-11-30T05:48:19.118Z,12.80
2022-11-30T05:52:23.158Z,12.50
2022-11-30T05:56:25.866Z,11.45
2022-11-30T06:00:28.510Z,11.10
2022-11-30T06:04:31.329Z,10.90
2022-11-30T06:08:35.305Z,11.05
2022-11-30T06:12:37.933Z,11.25
2022-11-30T06:16:40.970Z,12.73
2022-11-30T06:20:43.760Z,11.90
2022-11-30T06:24:47.785Z,11.47
2022-11-30T06:28:50.506Z,11.40
2022-11-30T06:32:53.549Z,11.43
2022-11-30T06:36:58.388Z,11.32
2022-11-30T06:41:06.685Z,10.77
2022-11-30T06:45:10.623Z,10.93
2022-11-30T06:49:13.251Z,11.38
2022-11-30T06:53:15.825Z,10.63
2022-11-30T06:57:19.840Z,10.43
2022-11-30T07:01:22.672Z,11.13
2022-11-30T07:05:25.328Z,10.50
2022-11-30T07:09:28.127Z,10.23
2022-11-30T07:13:32.143Z,10.43
2022-11-30T07:17:34.784Z,10.40
2022-11-30T07:21:37.421Z,11.53
2022-11-30T07:25:57.492Z,10.43
2022-11-30T07:30:01.536Z,10.20
2022-11-30T07:34:06.737Z,10.30
2022-11-30T07:38:10.041Z,10.48
2022-11-30T07:42:12.708Z,10.82
2022-11-30T07:46:17.671Z,10.23
2022-11-30T07:50:20.305Z,9.77
2022-11-30T07:54:22.963Z,9.87
2022-11-30T07:58:25.573Z,8.77
2022-11-30T08:02:29.645Z,9.00
2022-11-30T08:06:32.761Z,9.68
2022-11-30T08:10:35.549Z,9.02
2022-11-30T08:15:11.103Z,8.97
2022-11-30T08:19:02.117Z,9.63
2022-11-30T08:23:04.800Z,9.43
2022-11-30T08:27:07.440Z,8.47
2022-11-30T08:31:13.113Z,8.37
2022-11-30T08:35:17.281Z,7.97
2022-11-30T08:39:19.957Z,8.20
2022-11-30T08:43:22.546Z,8.73
2022-11-30T08:47:25.281Z,9.30
2022-11-30T08:51:42.170Z,11.73
2022-11-30T08:55:58.664Z,11.43
2022-11-30T09:00:01.275Z,13.32
2022-11-30T09:04:03.943Z,11.50
2022-11-30T09:08:08.011Z,10.73
2022-11-30T09:12:10.703Z,10.68
2022-11-30T09:16:15.133Z,9.23
2022-11-30T09:20:18.040Z,8.77
2022-11-30T09:24:22.007Z,9.50
2022-11-30T09:28:24.979Z,9.38
2022-11-30T09:32:28.527Z,9.60
2022-11-30T09:36:32.914Z,9.73
2022-11-30T09:40:39.333Z,10.52
2022-11-30T09:44:53.277Z,10.32
2022-11-30T09:49:03.498Z,10.52
2022-11-30T09:53:12.604Z,9.55
2022-11-30T09:57:26.444Z,9.30
2022-11-30T10:01:32.725Z,9.63
2022-11-30T10:05:46.512Z,9.88
2022-11-30T10:10:23.886Z,10.10
2022-11-30T10:14:45.817Z,7.97
2022-11-30T10:18:56.057Z,8.13
2022-11-30T10:23:13.208Z,9.07
2022-11-30T10:27:18.894Z,9.13
2022-11-30T10:31:36.109Z,9.73
2022-11-30T10:35:42.317Z,9.15
2022-11-30T10:39:53.950Z,8.43
2022-11-30T10:44:03.911Z,8.15
2022-11-30T10:48:16.073Z,9.05
2022-11-30T10:52:23.234Z,8.90
2022-11-30T10:56:26.641Z,9.23
2022-11-30T11:00:29.262Z,9.05
2022-11-30T11:04:33.265Z,8.10
2022-11-30T11:08:36.347Z,8.73
2022-11-30T11:12:39.084Z,10.98
2022-11-30T11:16:56.899Z,9.43
2022-11-30T11:21:07.354Z,8.95
2022-11-30T11:25:20.286Z,9.82
2022-11-30T11:29:32.166Z,9.13
2022-11-30T11:33:34.816Z,8.35
2022-11-30T11:37:41.543Z,9.23
2022-11-30T11:41:44.196Z,8.52
2022-11-30T11:45:52.948Z,9.73
2022-11-30T11:50:09.282Z,8.65
2022-11-30T11:54:23.429Z,9.77
2022-11-30T11:58:36.369Z,10.82
2022-11-30T12:02:50.662Z,10.40
2022-11-30T12:06:56.640Z,10.63
2022-11-30T12:11:05.803Z,10.95
2022-11-30T12:15:12.280Z,10.40
2022-11-30T12:19:21.591Z,10.40
2022-11-30T12:23:44.032Z,9.57
2022-11-30T12:27:57.060Z,9.40
2022-11-30T12:32:17.550Z,8.83
2022-11-30T12:36:30.443Z,9.23
2022-11-30T12:40:42.340Z,9.63
2022-11-30T12:44:57.634Z,10.02
2022-11-30T12:49:13.550Z,10.18
2022-11-30T12:53:23.647Z,10.32
2022-11-30T12:57:31.435Z,10.60
2022-11-30T13:01:49.495Z,10.93
2022-11-30T13:05:58.118Z,11.10
2022-11-30T13:10:07.950Z,11.13
2022-11-30T13:14:14.953Z,11.05
2022-11-30T13:18:21.025Z,10.85
2022-11-30T13:22:27.854Z,11.15
2022-11-30T13:26:35.274Z,9.63
2022-11-30T13:30:43.487Z,10.95
2022-11-30T13:34:47.710Z,10.73
2022-11-30T13:39:10.078Z,10.88
2022-11-30T13:43:19.174Z,10.80
2022-11-30T13:47:30.134Z,10.80
2022-11-30T13:51:39.773Z,10.82
2022-11-30T13:56:00.577Z,10.13
2022-11-30T14:00:25.111Z,10.52
2022-11-30T14:04:32.898Z,11.63
2022-11-30T14:08:39.060Z,11.88
2022-11-30T14:13:00.659Z,9.43
2022-11-30T14:17:03.557Z,9.52
2022-11-30T14:21:16.607Z,9.73
2022-11-30T14:25:22.046Z,9.18
2022-11-30T14:29:28.948Z,8.57
2022-11-30T14:33:42.499Z,9.27
2022-11-30T14:37:47.846Z,8.57
2022-11-30T14:41:51.996Z,7.72
2022-11-30T14:46:04.670Z,9.52
2022-11-30T14:50:23.610Z,9.27
2022-11-30T14:54:48.387Z,9.43
2022-11-30T14:58:58.894Z,10.90
2022-11-30T15:03:01.612Z,9.43
2022-11-30T15:07:04.455Z,9.73
2022-11-30T15:11:09.289Z,9.80
2022-11-30T15:15:18.914Z,9.05
2022-11-30T15:19:24.438Z,9.05
2022-11-30T15:23:27.694Z,8.98
2022-11-30T15:27:30.592Z,9.10
2022-11-30T15:31:38.310Z,9.80
2022-11-30T15:36:13.850Z,9.15
2022-11-30T15:40:11.550Z,9.45
2022-11-30T15:44:25.037Z,9.95
2022-11-30T15:48:31.848Z,9.18
2022-11-30T15:52:34.671Z,9.60
2022-11-30T15:56:37.896Z,10.05
2022-11-30T16:00:40.540Z,8.90
2022-11-30T16:05:13.792Z,8.67
2022-11-30T16:09:23.767Z,9.13
2022-11-30T16:13:31.200Z,9.38
2022-11-30T16:17:33.928Z,9.15
2022-11-30T16:21:38.014Z,9.73
2022-11-30T16:25:42.018Z,8.50
2022-11-30T16:29:49.111Z,10.55
2022-11-30T16:33:54.563Z,10.43
2022-11-30T16:37:58.519Z,10.13
2022-11-30T16:42:01.124Z,9.38
2022-11-30T16:46:03.813Z,10.00
2022-11-30T16:50:08.243Z,9.65
2022-11-30T16:54:14.147Z,11.07
2022-11-30T16:58:16.746Z,9.57
2022-11-30T17:02:24.573Z,9.97
2022-11-30T17:06:27.738Z,11.13
2022-11-30T17:10:31.795Z,11.23
2022-11-30T17:14:34.416Z,11.27
2022-11-30T17:18:37.114Z,11.83
2022-11-30T17:22:40.124Z,11.93
2022-11-30T17:26:44.116Z,12.63
2022-11-30T17:30:46.821Z,12.25
2022-11-30T17:34:49.829Z,12.90
2022-11-30T17:38:52.696Z,13.40
2022-11-30T17:42:56.657Z,13.87
2022-11-30T17:46:59.256Z,13.50
2022-11-30T17:51:02.349Z,14.10
2022-11-30T17:55:05.345Z,14.20
2022-11-30T17:59:09.663Z,13.52
2022-11-30T18:03:12.307Z,14.55
2022-11-30T18:07:14.999Z,14.43
2022-11-30T18:11:20.214Z,13.40
2022-11-30T18:15:24.188Z,15.43
2022-11-30T18:19:26.875Z,14.23
2022-11-30T18:23:29.501Z,15.83
2022-11-30T18:27:32.097Z,14.93
2022-11-30T18:31:37.228Z,15.10
2022-11-30T18:35:39.828Z,14.25
2022-11-30T18:39:42.584Z,14.43
2022-11-30T18:43:45.221Z,14.70
2022-11-30T18:48:22.556Z,14.00
2022-11-30T18:52:26.555Z,15.30
2022-11-30T18:56:30.332Z,15.25
2022-11-30T19:00:32.951Z,16.25
2022-11-30T19:04:35.538Z,18.17
2022-11-30T19:08:40.883Z,17.47
2022-11-30T19:12:44.605Z,18.10
2022-11-30T19:16:47.822Z,18.88
2022-11-30T19:20:50.850Z,17.63
2022-11-30T19:24:54.788Z,19.10
2022-11-30T19:28:58.471Z,17.88
2022-11-30T19:33:01.068Z,17.92
2022-11-30T19:37:03.674Z,19.97
2022-11-30T19:41:08.793Z,18.50
2022-11-30T19:45:11.969Z,18.52
2022-11-30T19:49:14.556Z,18.65
2022-11-30T19:53:17.150Z,19.25
2022-11-30T19:57:21.165Z,17.00
2022-11-30T20:01:25.462Z,17.88
2022-11-30T20:05:28.533Z,18.55
2022-11-30T20:09:31.115Z,19.58
2022-11-30T20:13:35.100Z,20.73
2022-11-30T20:17:37.740Z,19.88
2022-11-30T20:21:40.351Z,20.50
2022-11-30T20:25:42.963Z,19.53
2022-11-30T20:29:46.899Z,21.27
2022-11-30T20:33:50.220Z,19.58
2022-11-30T20:37:53.062Z,20.63
2022-11-30T20:41:55.701Z,20.23
2022-11-30T20:45:59.750Z,20.77
2022-11-30T20:50:02.418Z,19.17
2022-11-30T20:54:07.422Z,20.23
2022-11-30T20:58:10.009Z,20.20
2022-11-30T21:02:14.077Z,21.33
2022-11-30T21:06:17.644Z,18.88
2022-11-30T21:14:23.335Z,18.60
2022-11-30T21:18:27.327Z,19.47
2022-11-30T21:22:30.087Z,18.95
2022-11-30T21:26:34.421Z,19.73
2022-11-30T21:30:39.318Z,20.35
2022-11-30T21:34:43.330Z,18.58
2022-11-30T21:38:45.981Z,18.73
2022-11-30T21:42:48.635Z,19.80
2022-11-30T21:46:51.627Z,19.63
2022-11-30T21:51:00.474Z,21.45
2022-11-30T21:55:03.103Z,19.40
2022-11-30T21:59:07.282Z,21.43
